sensor_id;sensor_type;location;lat;lon;timestamp;pressure;altitude;pressure_sealevel;temperature;humidity
15558;BME280;7880;50.110;9.372;2022-07-30T00:02:04;16.09961459306651;;;15.437;100.0
15558;BME280;7880;50.110;9.372;2022-07-30T00:07:08;15.837398542376468;;;15.25;100.0
15558;BME280;7880;50.110;9.372;2022-07-30T00:11:37;15.80714289486059;;;15.312;100.0
15558;BME280;7880;50.110;9.372;2022-07-30T00:16:40;15.383564929763088;;;15.0;100.0
15558;BME280;7880;50.110;9.372;2022-07-30T00:21:43;15.282713335991138;;;14.875;100.0
15558;BME280;7880;50.110;9.372;2022-07-30T00:26:51;15.60543884584331;;;15.062;100.0
15558;BME280;7880;50.110;9.372;2022-07-30T00:31:54;15.570140685141087;;;15.0;100.0
15558;BME280;7880;50.110;9.372;2022-07-30T00:36:58;15.665950011654058;;;15.062;100.0
15558;BME280;7880;50.110;9.372;2022-07-30T00:42:03;15.444075941905613;;;14.875;100.0
15558;BME280;7880;50.110;9.372;2022-07-30T00:47:07;15.570140685141087;;;14.937;100.0
15558;BME280;7880;50.110;9.372;2022-07-30T00:52:10;15.464246288599679;;;14.875;100.0
15558;BME280;7880;50.110;9.372;2022-07-30T00:57:14;15.454161114670569;;;14.937;100.0
15558;BME280;7880;50.110;9.372;2022-07-30T01:02:24;15.363394601695472;;;14.812;100.0
15558;BME280;7880;50.110;9.372;2022-07-30T01:07:28;15.186904429737478;;;14.687;100.0
15558;BME280;7880;50.110;9.372;2022-07-30T01:12:32;15.20203214479261;;;14.625;100.0
15558;BME280;7880;50.110;9.372;2022-07-30T01:17:32;15.222202435607324;;;14.687;100.0
15558;BME280;7880;50.110;9.372;2022-07-30T01:22:57;15.262543031206587;;;14.687;100.0
15558;BME280;7880;50.110;9.372;2022-07-30T01:27:44;15.24237273107865;;;14.75;100.0
15558;BME280;7880;50.110;9.372;2022-07-30T01:32:54;15.060840239474782;;;14.625;100.0
15558;BME280;7880;50.110;9.372;2022-07-30T01:37:52;15.131436163611943;;;14.625;100.0
15558;BME280;7880;50.110;9.372;2022-07-30T01:42:58;15.020499737007777;;;14.562;100.0
15558;BME280;7880;50.110;9.372;2022-07-30T01:47:59;14.596925585676217;;;14.375;100.0
15558;BME280;7880;50.110;9.372;2022-07-30T01:53:02;14.954946460225619;;;14.437;100.0
15558;BME280;7880;50.110;9.372;2022-07-30T01:58:06;15.18186185863451;;;14.687;100.0
15558;BME280;7880;50.110;9.372;2022-07-30T02:03:22;15.060840239474782;;;14.625;100.0
15558;BME280;7880;50.110;9.372;2022-07-30T02:08:19;14.823840054217726;;;14.5;100.0
15558;BME280;7880;50.110;9.372;2022-07-30T02:13:27;14.954946460225619;;;14.562;100.0
15558;BME280;7880;50.110;9.372;2022-07-30T02:18:33;14.879308125056559;;;14.5;100.0
15558;BME280;7880;50.110;9.372;2022-07-30T02:23:43;14.929733674559975;;;14.5;100.0
15558;BME280;7880;50.110;9.372;2022-07-30T02:28:41;14.591883048624732;;;14.312;100.0
15558;BME280;7880;50.110;9.372;2022-07-30T02:33:42;14.879308125056559;;;14.375;100.0
15558;BME280;7880;50.110;9.372;2022-07-30T02:38:44;14.884350678697228;;;14.437;100.0
15558;BME280;7880;50.110;9.372;2022-07-30T02:43:48;14.808712404646212;;;14.375;100.0
15558;BME280;7880;50.110;9.372;2022-07-30T02:48:57;14.768372018594528;;;14.25;100.0
15558;BME280;7880;50.110;9.372;2022-07-30T02:53:57;14.934776231111027;;;14.437;100.0
15558;BME280;7880;50.110;9.372;2022-07-30T02:59:16;15.020499737007777;;;14.562;100.0
15558;BME280;7880;50.110;9.372;2022-07-30T03:04:10;15.035627423250116;;;14.625;100.0
15558;BME280;7880;50.110;9.372;2022-07-30T03:09:11;15.050755112111801;;;14.687;100.0
15558;BME280;7880;50.110;9.372;2022-07-30T03:14:13;15.106223327014595;;;14.75;100.0
15558;BME280;7880;50.110;9.372;2022-07-30T03:19:18;15.21211728961789;;;14.812;100.0
15558;BME280;7880;50.110;9.372;2022-07-30T03:24:28;15.272628183016787;;;14.937;100.0
15558;BME280;7880;50.110;9.372;2022-07-30T03:29:26;15.227245009038597;;;15.0;100.0
15558;BME280;7880;50.110;9.372;2022-07-30T03:34:30;15.333139118325198;;;15.062;100.0
15558;BME280;7880;50.110;9.372;2022-07-30T03:39:33;15.131436163611943;;;14.875;100.0
15558;BME280;7880;50.110;9.372;2022-07-30T03:44:35;15.247415305674076;;;14.937;100.0
15558;BME280;7880;50.110;9.372;2022-07-30T03:49:52;15.131436163611943;;;14.937;100.0
15558;BME280;7880;50.110;9.372;2022-07-30T03:54:50;15.267585606966168;;;14.875;100.0
15558;BME280;7880;50.110;9.372;2022-07-30T03:59:51;15.262543031206587;;;14.875;100.0
15558;BME280;7880;50.110;9.372;2022-07-30T04:04:56;15.23228758276091;;;14.937;100.0
15558;BME280;7880;50.110;9.372;2022-07-30T04:10:04;15.292798490129645;;;14.937;100.0
15558;BME280;7880;50.110;9.372;2022-07-30T04:15:06;15.272628183016787;;;14.875;100.0
15558;BME280;7880;50.110;9.372;2022-07-30T04:20:22;15.272628183016787;;;14.875;100.0
15558;BME280;7880;50.110;9.372;2022-07-30T04:25:20;15.196989572816529;;;14.937;100.0
15558;BME280;7880;50.110;9.372;2022-07-30T04:30:16;15.060840239474782;;;14.812;100.0
15558;BME280;7880;50.110;9.372;2022-07-30T04:35:25;15.222202435607324;;;14.812;100.0
15558;BME280;7880;50.110;9.372;2022-07-30T04:40:24;15.030584860878298;;;14.75;100.0
15558;BME280;7880;50.110;9.372;2022-07-30T04:45:31;14.949903902510414;;;14.625;100.0
15558;BME280;7880;50.110;9.372;2022-07-30T04:50:37;15.227245009038597;;;14.812;100.0
15558;BME280;7880;50.110;9.372;2022-07-30T04:55:52;15.015457175509074;;;14.812;100.0
15558;BME280;7880;50.110;9.372;2022-07-30T05:00:44;14.889393232628937;;;14.625;100.0
15558;BME280;7880;50.110;9.372;2022-07-30T05:05:49;15.040669985912974;;;14.687;100.0
15558;BME280;7880;50.110;9.372;2022-07-30T05:10:52;15.10118076056824;;;14.812;100.0
15558;BME280;7880;50.110;9.372;2022-07-30T05:15:48;15.222202435607324;;;14.937;100.0
15558;BME280;7880;50.110;9.372;2022-07-30T05:20:51;15.474331463692943;;;15.125;100.0
15558;BME280;7880;50.110;9.372;2022-07-30T05:25:55;15.41886301508639;;;15.125;100.0
15558;BME280;7880;50.110;9.372;2022-07-30T05:31:01;15.302883645432303;;;15.0;100.0
15558;BME280;7880;50.110;9.372;2022-07-30T05:36:01;15.590311060938983;;;15.25;100.0
15558;BME280;7880;50.110;9.372;2022-07-30T05:41:07;15.549970313999802;;;15.312;100.0
15558;BME280;7880;50.110;9.372;2022-07-30T05:46:09;15.52979994751513;;;15.312;100.0
15558;BME280;7880;50.110;9.372;2022-07-30T05:51:23;15.746631631260971;;;15.5;100.0
15558;BME280;7880;50.110;9.372;2022-07-30T05:56:16;15.827313325373689;;;15.562;100.0
15558;BME280;7880;50.110;9.372;2022-07-30T06:01:19;15.983634319738485;;;15.75;100.0
15558;BME280;7880;50.110;9.372;2022-07-30T06:06:23;16.170211356558138;;;15.937;100.0
15558;BME280;7880;50.110;9.372;2022-07-30T06:11:28;16.225680282176473;;;16.0;100.0
15558;BME280;7880;50.110;9.372;2022-07-30T06:16:36;16.41730047799647;;;16.187;100.0
15558;BME280;7880;50.110;9.372;2022-07-30T06:21:36;16.457641625404356;;;16.312;100.0
15558;BME280;7880;50.110;9.372;2022-07-30T06:26:39;16.503025438502664;;;16.312;100.0
15558;BME280;7880;50.110;9.372;2022-07-30T06:31:46;16.67951826909557;;;16.437;100.0
15558;BME280;7880;50.110;9.372;2022-07-30T06:36:50;16.644219674455236;;;16.5;100.0
15558;BME280;7880;50.110;9.372;2022-07-30T06:42:11;16.719859537575395;;;16.5;100.0
15558;BME280;7880;50.110;9.372;2022-07-30T06:46:56;16.704731559712673;;;16.562;100.0
15558;BME280;7880;50.110;9.372;2022-07-30T06:52:00;16.775328812148654;;;16.562;100.0
15558;BME280;7880;50.110;9.372;2022-07-30T06:57:03;16.88626746694208;;;16.75;100.0
15558;BME280;7880;50.110;9.372;2022-07-30T07:02:06;16.982078236714006;;;16.812;100.0
15558;BME280;7880;50.110;9.372;2022-07-30T07:07:11;17.21404158810619;;;17.0;100.0
15558;BME280;7880;50.110;9.372;2022-07-30T07:12:18;17.30481002368033;;;17.125;100.0
15558;BME280;7880;50.110;9.372;2022-07-30T07:17:20;17.395578553550877;;;17.25;100.0
15558;BME280;7880;50.110;9.372;2022-07-30T07:22:23;17.456090959184802;;;17.312;100.0
15558;BME280;7880;50.110;9.372;2022-07-30T07:27:28;17.677970138401726;;;17.5;100.0
15558;BME280;7880;50.110;9.372;2022-07-30T07:32:31;17.713269150682027;;;17.562;100.0
15558;BME280;7880;50.110;9.372;2022-07-30T07:37:36;17.814123550063233;;;17.625;100.0
15558;BME280;7880;50.110;9.372;2022-07-30T07:42:41;18.01078996369615;;;17.875;99.69013709962029
15558;BME280;7880;50.110;9.372;2022-07-30T07:47:47;18.04608911043615;;;17.875;99.27012659195309
15558;BME280;7880;50.110;9.372;2022-07-30T07:52:49;18.197371329419546;;;18.0;99.8491412593998
15558;BME280;7880;50.110;9.372;2022-07-30T07:57:51;18.323440045327878;;;18.125;99.13865064005199
15558;BME280;7880;50.110;9.372;2022-07-30T08:02:54;18.39908136218437;;;18.312;97.38881113252936
15558;BME280;7880;50.110;9.372;2022-07-30T08:08:02;18.48480826711748;;;18.312;98.17178324805488
15558;BME280;7880;50.110;9.372;2022-07-30T08:13:08;18.63609124571085;;;18.5;96.12715510663031
15558;BME280;7880;50.110;9.372;2022-07-30T08:18:12;18.8176311657764;;;18.625;95.0056533618985
15558;BME280;7880;50.110;9.372;2022-07-30T08:23:17;18.984043090516934;;;18.875;95.93856239862728
15558;BME280;7880;50.110;9.372;2022-07-30T08:28:20;19.165583733521636;;;19.062;92.06295537918425
15558;BME280;7880;50.110;9.372;2022-07-30T08:33:23;19.210968953208067;;;19.062;90.83519261202531
15558;BME280;7880;50.110;9.372;2022-07-30T08:38:33;19.39755288181477;;;19.25;89.46289968148992
15558;BME280;7880;50.110;9.372;2022-07-30T08:43:34;19.548837440746137;;;19.437;88.63035321181663
15558;BME280;7880;50.110;9.372;2022-07-30T08:48:36;19.634565473743713;;;19.437;89.4316920464742
15558;BME280;7880;50.110;9.372;2022-07-30T08:53:42;19.387467253865907;;;19.375;85.52056111293862
15558;BME280;7880;50.110;9.372;2022-07-30T08:58:46;19.56396591104567;;;19.312;86.02129679911624
15558;BME280;7880;50.110;9.372;2022-07-30T09:03:50;19.589180034032324;;;19.437;87.37791641535861
15558;BME280;7880;50.110;9.372;2022-07-30T09:08:56;19.90183576355339;;;19.812;81.22329213032474
15558;BME280;7880;50.110;9.372;2022-07-30T09:14:06;20.07329260632978;;;20.0;82.86018891156061
15558;BME280;7880;50.110;9.372;2022-07-30T09:19:13;19.916964294970967;;;19.75;81.6699618821441
15558;BME280;7880;50.110;9.372;2022-07-30T09:24:09;20.280049834796227;;;20.125;77.5754871830055
15558;BME280;7880;50.110;9.372;2022-07-30T09:29:15;20.385950068110834;;;20.312;73.37856181821152
15558;BME280;7880;50.110;9.372;2022-07-30T09:34:23;20.466636046307393;;;20.312;76.33381027946771
15558;BME280;7880;50.110;9.372;2022-07-30T09:39:28;20.617922456242376;;;20.5;72.07748097357215
15558;BME280;7880;50.110;9.372;2022-07-30T09:44:23;20.69860864864313;;;20.625;72.42313688641403
15558;BME280;7880;50.110;9.372;2022-07-30T09:49:27;20.728865990001943;;;20.625;70.70084781418971
15558;BME280;7880;50.110;9.372;2022-07-30T09:54:46;20.915453159902246;;;20.812;72.5154440429652
15558;BME280;7880;50.110;9.372;2022-07-30T09:59:32;20.87006705487729;;;20.75;71.42301744514937
15558;BME280;7880;50.110;9.372;2022-07-30T10:04:37;20.98101090877899;;;20.812;70.36883173614932
15558;BME280;7880;50.110;9.372;2022-07-30T10:09:46;21.414701871067518;;;21.25;67.20768527146721
15558;BME280;7880;50.110;9.372;2022-07-30T10:14:48;21.19785612085834;;;21.187;64.21007804124145
15558;BME280;7880;50.110;9.372;2022-07-30T10:19:59;21.666848768905037;;;21.5;61.497792538943344
15558;BME280;7880;50.110;9.372;2022-07-30T10:25:03;22.034984546364285;;;21.937;60.11270712909607
15558;BME280;7880;50.110;9.372;2022-07-30T10:30:06;21.88873864086927;;;21.875;57.887115654384196
15558;BME280;7880;50.110;9.372;2022-07-30T10:35:08;21.95934008192853;;;21.875;58.400311780385884
15558;BME280;7880;50.110;9.372;2022-07-30T10:40:20;21.707192340079928;;;21.625;57.591565763038346
15558;BME280;7880;50.110;9.372;2022-07-30T10:45:17;21.66180582381785;;;21.437;57.40517073406766
15558;BME280;7880;50.110;9.372;2022-07-30T10:50:28;22.150972852349515;;;22.0;57.735920085348454
15558;BME280;7880;50.110;9.372;2022-07-30T10:55:24;21.59624756416888;;;21.5;55.98123294666512
15558;BME280;7880;50.110;9.372;2022-07-30T11:00:30;21.389487221301533;;;21.312;55.41971593785535
15558;BME280;7880;50.110;9.372;2022-07-30T11:05:32;21.560946983192117;;;21.312;57.075412643922554
15558;BME280;7880;50.110;9.372;2022-07-30T11:10:38;21.717278235784033;;;21.562;57.168910760453336
15558;BME280;7880;50.110;9.372;2022-07-30T11:15:58;22.201402598625283;;;22.0;53.837380078141344
15558;BME280;7880;50.110;9.372;2022-07-30T11:21:14;22.287133234087378;;;22.187;54.36775583719384
15558;BME280;7880;50.110;9.372;2022-07-30T11:25:54;22.640142619260587;;;22.5;54.5655833230372
15558;BME280;7880;50.110;9.372;2022-07-30T11:30:56;22.816647846630076;;;22.75;52.73751555204162
15558;BME280;7880;50.110;9.372;2022-07-30T11:36:06;22.060199382394785;;;22.125;54.35403185543013
15558;BME280;7880;50.110;9.372;2022-07-30T11:41:08;21.898824557528133;;;21.812;55.64598854084374
15558;BME280;7880;50.110;9.372;2022-07-30T11:46:10;22.17618772184942;;;21.937;53.53751531883551
15558;BME280;7880;50.110;9.372;2022-07-30T11:51:15;22.38294992619776;;;22.375;51.98886918319509
15558;BME280;7880;50.110;9.372;2022-07-30T11:56:20;22.408164862636475;;;22.25;51.61417305722804
15558;BME280;7880;50.110;9.372;2022-07-30T12:01:30;22.660314627201295;;;22.5;54.370465033065365
15558;BME280;7880;50.110;9.372;2022-07-30T12:06:25;22.534239653969415;;;22.437;53.4574186362084
15558;BME280;7880;50.110;9.372;2022-07-30T12:11:31;22.972981345746668;;;22.812;52.4375521933402
15558;BME280;7880;50.110;9.372;2022-07-30T12:20:14;22.87716400665813;;;22.875;53.62162213571167
15558;BME280;7880;50.110;9.372;2022-07-30T12:25:10;22.786389782332115;;;22.687;51.990498703049056
15558;BME280;7880;50.110;9.372;2022-07-30T12:30:14;22.836819895316147;;;22.625;51.507268089799766
15558;BME280;7880;50.110;9.372;2022-07-30T12:35:18;22.87716400665813;;;22.75;51.50847126552501
15558;BME280;7880;50.110;9.372;2022-07-30T12:40:24;23.154530276358127;;;23.062;50.09908001967259
15558;BME280;7880;50.110;9.372;2022-07-30T12:45:26;22.967938325280556;;;22.937;50.606509907684476
15558;BME280;7880;50.110;9.372;2022-07-30T12:50:32;22.589712619781494;;;22.625;50.81381429767137
15558;BME280;7880;50.110;9.372;2022-07-30T12:55:43;22.93263719016686;;;22.687;50.54012816894098
15558;BME280;7880;50.110;9.372;2022-07-30T13:00:46;23.169659370934824;;;22.937;51.3100111509074
15558;BME280;7880;50.110;9.372;2022-07-30T13:05:45;23.462155714264373;;;23.375;49.24484917816067
15558;BME280;7880;50.110;9.372;2022-07-30T13:10:57;23.381466970039764;;;23.312;49.11188278620201
15558;BME280;7880;50.110;9.372;2022-07-30T13:15:57;23.69413626893074;;;23.625;49.326981071580235
15558;BME280;7880;50.110;9.372;2022-07-30T13:20:56;23.320950460765744;;;23.312;48.39544080958355
15558;BME280;7880;50.110;9.372;2022-07-30T13:26:00;23.522672321327263;;;23.437;47.79379130832284
15558;BME280;7880;50.110;9.372;2022-07-30T13:31:07;23.431897426448995;;;23.437;46.29529474463316
15558;BME280;7880;50.110;9.372;2022-07-30T13:36:09;23.588232026272454;;;23.5;47.576668516470974
15558;BME280;7880;50.110;9.372;2022-07-30T13:41:16;23.784911436220863;;;23.687;46.88108919920568
15558;BME280;7880;50.110;9.372;2022-07-30T13:46:21;23.63866260200739;;;23.625;44.72997964192515
15558;BME280;7880;50.110;9.372;2022-07-30T13:51:31;23.926117439434165;;;23.812;45.14442833226521
15558;BME280;7880;50.110;9.372;2022-07-30T13:56:31;24.15809922577464;;;24.062;46.264413354507965
15558;BME280;7880;50.110;9.372;2022-07-30T14:01:36;24.107668350270252;;;24.187;45.52480008375215
15558;BME280;7880;50.110;9.372;2022-07-30T14:06:46;24.526245498657225;;;24.312;46.61036930865346
15558;BME280;7880;50.110;9.372;2022-07-30T14:11:55;24.183314674440773;;;24.312;44.272318172094096
15558;BME280;7880;50.110;9.372;2022-07-30T14:16:51;24.15305613691453;;;24.125;44.589471780678174
15558;BME280;7880;50.110;9.372;2022-07-30T14:21:58;24.480857518181438;;;24.375;45.84288991232113
15558;BME280;7880;50.110;9.372;2022-07-30T14:26:59;24.531288609054172;;;24.562;43.50956890385331
15558;BME280;7880;50.110;9.372;2022-07-30T14:32:03;24.148013048345454;;;24.125;43.675011200819505
15558;BME280;7880;50.110;9.372;2022-07-30T14:37:07;24.410254039854046;;;24.312;43.25065836524957
15558;BME280;7880;50.110;9.372;2022-07-30T14:42:12;24.349736818118252;;;24.375;43.35411668245028
15558;BME280;7880;50.110;9.372;2022-07-30T14:47:14;24.17827158412547;;;24.187;43.46725254489871
15558;BME280;7880;50.110;9.372;2022-07-30T14:52:21;24.011849766992963;;;23.937;45.38648613571977
15558;BME280;7880;50.110;9.372;2022-07-30T14:57:23;24.203487038612366;;;24.0;44.82012250470722
15558;BME280;7880;50.110;9.372;2022-07-30T15:02:28;24.51615927873645;;;24.375;43.81631687773986
15558;BME280;7880;50.110;9.372;2022-07-30T15:07:41;24.35477991832886;;;24.312;44.252639661006725
15558;BME280;7880;50.110;9.372;2022-07-30T15:12:37;23.895858990965642;;;23.812;43.9128464813045
15558;BME280;7880;50.110;9.372;2022-07-30T15:18:00;23.936203591251978;;;23.875;43.62872951777733
15558;BME280;7880;50.110;9.372;2022-07-30T15:22:46;23.820212915632872;;;23.687;43.66020125494519
15558;BME280;7880;50.110;9.372;2022-07-30T15:27:51;24.072366754733956;;;23.937;43.832899971815735
15558;BME280;7880;50.110;9.372;2022-07-30T15:32:57;24.072366754733956;;;24.0;43.871224394074154
15558;BME280;7880;50.110;9.372;2022-07-30T15:38:01;23.946289744233944;;;23.875;43.60147888810288
15558;BME280;7880;50.110;9.372;2022-07-30T15:43:04;24.062280587200075;;;23.937;42.85811963084256
15558;BME280;7880;50.110;9.372;2022-07-30T15:48:07;24.20853013038286;;;24.062;42.941740431740435
15558;BME280;7880;50.110;9.372;2022-07-30T15:53:11;23.946289744233944;;;23.937;44.08313680119958
15558;BME280;7880;50.110;9.372;2022-07-30T15:58:17;23.981591288838537;;;23.812;44.24231163734787
15558;BME280;7880;50.110;9.372;2022-07-30T16:03:20;23.936203591251978;;;23.812;44.07206265170682
15558;BME280;7880;50.110;9.372;2022-07-30T16:08:22;23.73448077608482;;;23.687;44.13513617506835
15558;BME280;7880;50.110;9.372;2022-07-30T16:13:27;23.608404253073967;;;23.562;44.36318350348993
15558;BME280;7880;50.110;9.372;2022-07-30T16:18:30;23.547887586639263;;;23.437;44.6576070609119
15558;BME280;7880;50.110;9.372;2022-07-30T16:23:34;23.497457063291222;;;23.375;43.90788938011535
15558;BME280;7880;50.110;9.372;2022-07-30T16:28:36;23.58318897029967;;;23.437;44.80026244544075
15558;BME280;7880;50.110;9.372;2022-07-30T16:33:39;23.97150513178203;;;23.75;43.79335993580238
15558;BME280;7880;50.110;9.372;2022-07-30T16:38:43;24.16818540436798;;;24.062;43.647865744607834
15558;BME280;7880;50.110;9.372;2022-07-30T16:43:49;24.284176541864873;;;24.187;43.47392022254851
15558;BME280;7880;50.110;9.372;2022-07-30T16:48:51;24.3245213214308;;;24.25;43.20043073323708
15558;BME280;7880;50.110;9.372;2022-07-30T16:53:56;24.61702153033111;;;24.5;41.70093727443469
15558;BME280;7880;50.110;9.372;2022-07-30T16:58:59;24.6472802285105;;;24.562;41.47624238366696
15558;BME280;7880;50.110;9.372;2022-07-30T17:04:03;24.606935299932957;;;24.562;39.92328226113518
15558;BME280;7880;50.110;9.372;2022-07-30T17:09:06;24.47077130349935;;;24.437;40.38913874642102
15558;BME280;7880;50.110;9.372;2022-07-30T17:14:09;24.51615927873645;;;24.437;40.444189861868175
15558;BME280;7880;50.110;9.372;2022-07-30T17:19:19;24.410254039854046;;;24.312;40.30661074089344
15558;BME280;7880;50.110;9.372;2022-07-30T17:24:13;24.410254039854046;;;24.25;41.06342418405044
15558;BME280;7880;50.110;9.372;2022-07-30T17:29:18;24.294262735010125;;;24.187;40.519978056283676
15558;BME280;7880;50.110;9.372;2022-07-30T17:34:26;24.22870250037522;;;24.125;40.72799208335216
15558;BME280;7880;50.110;9.372;2022-07-30T17:39:28;24.248874875024192;;;24.125;41.29818598605727
15558;BME280;7880;50.110;9.372;2022-07-30T17:44:34;24.193400855944493;;;24.062;40.95254276740856
15558;BME280;7880;50.110;9.372;2022-07-30T17:49:40;24.016892847704003;;;23.875;40.78717482825016
15558;BME280;7880;50.110;9.372;2022-07-30T17:54:41;23.991677447059192;;;23.875;41.42252793942927
15558;BME280;7880;50.110;9.372;2022-07-30T17:59:44;23.905945139291;;;23.75;42.30359497575912
15558;BME280;7880;50.110;9.372;2022-07-30T18:04:47;23.81012677720282;;;23.625;40.709394149242506
15558;BME280;7880;50.110;9.372;2022-07-30T18:09:50;23.729437711671928;;;23.562;40.90609286866346
15558;BME280;7880;50.110;9.372;2022-07-30T18:14:55;23.623533426231006;;;23.5;41.830490991647515
15558;BME280;7880;50.110;9.372;2022-07-30T18:20:08;23.497457063291222;;;23.312;41.41914573561854
15558;BME280;7880;50.110;9.372;2022-07-30T18:25:08;23.341122625867136;;;23.187;42.00327939942767
15558;BME280;7880;50.110;9.372;2022-07-30T18:30:08;23.220089705107966;;;23.062;42.035074991142956
15558;BME280;7880;50.110;9.372;2022-07-30T18:35:15;23.09401392424479;;;22.875;43.23081368691479
15558;BME280;7880;50.110;9.372;2022-07-30T18:40:16;22.71074466742575;;;22.5;48.33249094582361
15558;BME280;7880;50.110;9.372;2022-07-30T18:45:22;22.322434108430752;;;22.062;52.297074201634544
15558;BME280;7880;50.110;9.372;2022-07-30T18:50:23;21.722321184072644;;;21.5;56.20338575902882
15558;BME280;7880;50.110;9.372;2022-07-30T18:55:28;21.177684450522065;;;20.875;60.622276933030605
15558;BME280;7880;50.110;9.372;2022-07-30T19:00:32;21.369315506727435;;;20.75;60.12301454060823
15558;BME280;7880;50.110;9.372;2022-07-30T19:05:38;21.02639707142953;;;20.625;61.864193341498265
15558;BME280;7880;50.110;9.372;2022-07-30T19:10:39;20.915453159902246;;;20.375;62.988160070452246
15558;BME280;7880;50.110;9.372;2022-07-30T19:15:43;20.6885228705185;;;20.0;63.899086077721364
15558;BME280;7880;50.110;9.372;2022-07-30T19:20:47;20.678437093558024;;;20.062;65.0973464740945
15558;BME280;7880;50.110;9.372;2022-07-30T19:25:50;20.249792648851873;;;19.812;66.91529603879421
15558;BME280;7880;50.110;9.372;2022-07-30T19:30:56;20.1943211684993;;;19.5;68.54995463807226
15558;BME280;7880;50.110;9.372;2022-07-30T19:36:03;20.05312119559967;;;19.5;68.68019928299202
15558;BME280;7880;50.110;9.372;2022-07-30T19:41:05;20.01277838810929;;;19.25;68.87125685121111
15558;BME280;7880;50.110;9.372;2022-07-30T19:46:07;19.806021792069078;;;19.187;70.14294357327232
15558;BME280;7880;50.110;9.372;2022-07-30T19:51:18;19.750550593441584;;;19.062;67.66861723160939
15558;BME280;7880;50.110;9.372;2022-07-30T19:56:16;19.432852588803506;;;18.75;69.9113423235611
15558;BME280;7880;50.110;9.372;2022-07-30T20:01:19;19.387467253865907;;;18.625;71.41293077321016
15558;BME280;7880;50.110;9.372;2022-07-30T20:06:24;19.28661103840568;;;18.687;70.94857818008603
15558;BME280;7880;50.110;9.372;2022-07-30T20:11:27;18.99412867189967;;;18.437;73.84088527372832
15558;BME280;7880;50.110;9.372;2022-07-30T20:16:30;19.00421425444656;;;18.312;75.7617766190908
15558;BME280;7880;50.110;9.372;2022-07-30T20:21:35;18.958829142153263;;;18.25;78.2499080095705
15558;BME280;7880;50.110;9.372;2022-07-30T20:26:38;18.600791860610478;;;17.937;80.42706208719304
15558;BME280;7880;50.110;9.372;2022-07-30T20:31:41;18.615920166764408;;;17.937;80.09683730403738
15558;BME280;7880;50.110;9.372;2022-07-30T20:36:47;18.681476190366084;;;18.062;79.63757631614486
15558;BME280;7880;50.110;9.372;2022-07-30T20:42:07;18.273012537136673;;;17.562;82.2069163589593
15558;BME280;7880;50.110;9.372;2022-07-30T20:46:56;17.97549083121703;;;17.312;83.74613409048025
15558;BME280;7880;50.110;9.372;2022-07-30T20:52:01;18.39908136218437;;;17.625;80.91009724803709
15558;BME280;7880;50.110;9.372;2022-07-30T20:57:12;18.318397293199087;;;17.687;82.04586108602454
15558;BME280;7880;50.110;9.372;2022-07-30T21:02:25;17.87463624557131;;;17.437;84.82379311659118
15558;BME280;7880;50.110;9.372;2022-07-30T21:07:16;17.91497806585976;;;17.25;84.96679636429988
15558;BME280;7880;50.110;9.372;2022-07-30T21:12:24;18.15198663622141;;;17.5;83.79663217944778
15558;BME280;7880;50.110;9.372;2022-07-30T21:17:24;18.207456819998335;;;17.562;83.35925452732924
15558;BME280;7880;50.110;9.372;2022-07-30T21:22:29;18.12173018718604;;;17.5;84.04968757610843
15558;BME280;7880;50.110;9.372;2022-07-30T21:27:32;18.11668744669878;;;17.562;83.32848902249445
15558;BME280;7880;50.110;9.372;2022-07-30T21:32:45;17.97044809916988;;;17.312;84.844726149025
15558;BME280;7880;50.110;9.372;2022-07-30T21:37:38;17.683012853568652;;;17.125;86.0931631896639
15558;BME280;7880;50.110;9.372;2022-07-30T21:42:47;17.683012853568652;;;17.062;86.6260368802076
15558;BME280;7880;50.110;9.372;2022-07-30T21:47:57;17.814123550063233;;;17.312;86.32081853998488
15558;BME280;7880;50.110;9.372;2022-07-30T21:52:54;17.713269150682027;;;17.187;87.4978640989841